Terminal Aerodrome Forecast
Issued by NWS

Home | Current Version | Previous Version | Graphics & Text | Print | Product List | Glossary On
Versions: 1 2 3 4 5 6 7 8 9 10 11 12 13 14 15 16 17
000
FTUS43 KMPX 190500
TAFAXN
TAF
KAXN 190520Z 1906/2006 15008KT P6SM OVC025
     FM190900 16005KT P6SM OVC012
     FM191600 17009KT P6SM OVC020=

USA.gov is the U.S. government's official web portal to all federal, state and local government web resources and services.